Time;durP1;ratioP1;P1;durP2;ratioP2;P2;SDS_P1;SDS_P2;PMS_P1;PMS_P2;Temp;Humidity;BMP_temperature;BMP_pressure;BME280_temperature;BME280_humidity;BME280_pressure;Samples;Min_cycle;Max_cycle;Signal;HPM_P1;HPM_P2
2022/01/05 00:01:25;;;;;;;8.48;0.95;;;;;;;1.32;75.37;99770.34;6217450;23;20091;-76
2022/01/05 00:03:51;;;;;;;6.90;1.42;;;;;;;1.25;75.48;99774.97;6211577;23;20017;-76
2022/01/05 00:06:16;;;;;;;8.05;1.23;;;;;;;1.10;76.92;99772.63;6212670;23;20080;-76
2022/01/05 00:08:42;;;;;;;2.28;1.15;;;;;;;1.17;76.44;99779.59;6214625;23;20490;-77
2022/01/05 00:11:07;;;;;;;8.05;1.40;;;;;;;1.22;76.70;99785.13;6183045;23;20377;-76
2022/01/05 00:13:33;;;;;;;12.90;1.25;;;;;;;1.17;77.06;99790.38;6213080;23;20008;-76
2022/01/05 00:15:59;;;;;;;11.05;1.52;;;;;;;1.21;76.87;99790.72;6212992;23;20015;-76
2022/01/05 00:18:24;;;;;;;7.82;1.27;;;;;;;1.20;76.80;99789.09;6186255;23;20024;-76
2022/01/05 00:20:50;;;;;;;11.57;0.98;;;;;;;1.19;76.95;99788.25;6211267;23;20008;-76
2022/01/05 00:23:15;;;;;;;6.13;0.82;;;;;;;1.26;77.19;99782.84;6213991;23;20032;-73
2022/01/05 00:25:41;;;;;;;7.15;1.45;;;;;;;1.22;76.96;99782.44;6210175;23;20008;-72
2022/01/05 00:28:11;;;;;;;4.03;1.02;;;;;;;1.17;76.85;99773.38;6162142;23;20355;-74
2022/01/05 00:30:37;;;;;;;3.10;1.30;;;;;;;1.22;77.52;99790.50;6213221;23;20469;-73
2022/01/05 00:33:02;;;;;;;6.22;1.20;;;;;;;1.26;77.21;99798.19;6215710;23;20046;-74
2022/01/05 00:35:28;;;;;;;10.73;1.40;;;;;;;1.24;77.85;99797.56;6213577;22;20084;-75
2022/01/05 00:37:55;;;;;;;4.97;0.85;;;;;;;1.22;78.21;99792.41;6205008;23;20016;-74
2022/01/05 00:40:21;;;;;;;5.63;0.70;;;;;;;1.19;77.64;99793.66;6158361;23;20063;-74
2022/01/05 00:42:46;;;;;;;12.15;1.23;;;;;;;1.24;78.63;99801.06;6186884;23;20004;-73
2022/01/05 00:45:13;;;;;;;13.75;1.55;;;;;;;1.29;78.52;99813.91;6210650;23;20008;-73
2022/01/05 00:47:39;;;;;;;5.65;1.35;;;;;;;1.27;78.71;99810.59;6213137;23;20735;-76
2022/01/05 00:50:05;;;;;;;6.20;0.75;;;;;;;1.22;78.49;99812.06;6211269;23;20055;-75
2022/01/05 00:52:30;;;;;;;4.07;1.58;;;;;;;1.26;78.94;99808.97;6212721;23;20058;-75
2022/01/05 00:54:56;;;;;;;8.85;1.20;;;;;;;1.32;78.35;99802.69;6210590;23;20132;-75
2022/01/05 00:57:23;;;;;;;8.35;1.77;;;;;;;1.22;78.25;99797.78;6213075;23;20012;-75
2022/01/05 00:59:48;;;;;;;5.80;0.68;;;;;;;1.29;78.72;99813.91;6213300;23;20008;-74
2022/01/05 01:02:14;;;;;;;5.63;1.27;;;;;;;1.34;78.82;99811.34;6211686;23;20031;-74
2022/01/05 01:04:39;;;;;;;2.83;0.80;;;;;;;1.38;78.47;99815.25;6212169;23;20062;-74
2022/01/05 01:07:05;;;;;;;8.68;1.42;;;;;;;1.40;78.15;99810.47;6213050;23;20008;-72
2022/01/05 01:09:31;;;;;;;9.90;1.25;;;;;;;1.38;78.32;99813.38;6160846;23;20008;-73
2022/01/05 01:11:56;;;;;;;7.80;1.55;;;;;;;1.39;78.22;99815.03;6208590;23;20092;-73
2022/01/05 01:14:22;;;;;;;16.27;1.25;;;;;;;1.33;78.06;99802.47;6211107;23;20013;-73
2022/01/05 01:16:47;;;;;;;4.45;1.52;;;;;;;1.35;78.04;99796.84;6208688;23;20028;-74
2022/01/05 01:19:13;;;;;;;13.88;1.42;;;;;;;1.35;77.90;99807.63;6212577;23;20095;-73
2022/01/05 01:21:38;;;;;;;3.03;1.48;;;;;;;1.32;78.00;99792.72;6210756;23;20016;-73
2022/01/05 01:24:04;;;;;;;5.88;1.08;;;;;;;1.34;78.28;99796.03;6186881;23;20372;-73
2022/01/05 01:26:30;;;;;;;5.97;2.50;;;;;;;1.32;77.99;99795.41;6210143;23;20360;-73
2022/01/05 01:28:58;;;;;;;3.80;1.67;;;;;;;1.37;78.14;99808.22;6209251;23;20000;-73
2022/01/05 01:31:24;;;;;;;13.40;1.65;;;;;;;1.35;78.24;99821.09;6213457;23;20095;-74
2022/01/05 01:33:51;;;;;;;7.05;2.38;;;;;;;1.34;78.28;99814.91;6210934;23;20087;-73
2022/01/05 01:36:17;;;;;;;6.50;1.17;;;;;;;1.39;78.17;99811.53;6186487;23;20103;-73
2022/01/05 01:38:43;;;;;;;10.05;1.30;;;;;;;1.38;78.15;99801.78;6209540;23;20047;-73
2022/01/05 01:41:09;;;;;;;11.02;1.50;;;;;;;1.45;78.61;99812.53;6211715;23;20027;-73
2022/01/05 01:43:35;;;;;;;6.72;1.38;;;;;;;1.51;78.04;99804.34;6208699;23;20443;-75
2022/01/05 01:46:00;;;;;;;8.20;1.13;;;;;;;1.52;78.44;99814.09;6207483;23;20005;-73
2022/01/05 01:48:26;;;;;;;11.68;1.48;;;;;;;1.64;78.10;99826.84;6180713;23;20039;-74
2022/01/05 01:50:52;;;;;;;5.07;0.98;;;;;;;1.71;77.80;99827.63;6211325;23;20470;-74
2022/01/05 01:53:17;;;;;;;14.27;2.85;;;;;;;1.71;78.09;99827.63;6208558;23;20012;-73
2022/01/05 01:55:43;;;;;;;11.27;1.77;;;;;;;1.79;77.80;99824.63;6211453;23;20367;-74
2022/01/05 01:58:09;;;;;;;10.65;1.35;;;;;;;1.80;77.40;99825.47;6206170;23;20043;-73
2022/01/05 02:00:35;;;;;;;5.03;1.45;;;;;;;1.75;77.53;99823.41;6212376;23;20016;-74
2022/01/05 02:03:01;;;;;;;7.75;1.83;;;;;;;1.78;77.20;99822.97;6209380;23;20012;-74
2022/01/05 02:05:26;;;;;;;15.80;2.63;;;;;;;1.73;76.82;99829.03;6215528;23;20019;-73
2022/01/05 02:07:52;;;;;;;15.15;1.48;;;;;;;1.72;76.90;99830.09;6223118;23;20030;-73
2022/01/05 02:10:18;;;;;;;14.25;1.73;;;;;;;1.68;77.19;99838.81;6214507;23;20007;-73
2022/01/05 02:12:44;;;;;;;15.02;1.75;;;;;;;1.69;76.33;99835.09;6218216;23;20005;-73
2022/01/05 02:15:10;;;;;;;17.25;2.40;;;;;;;1.67;76.65;99831.81;6185963;23;20381;-74
2022/01/05 02:17:50;;;;;;;12.68;1.83;;;;;;;1.63;76.40;99834.09;6208474;23;20004;-74
2022/01/05 02:20:20;;;;;;;14.80;1.98;;;;;;;1.53;76.51;99831.09;6210784;23;20004;-75
2022/01/05 02:22:46;;;;;;;9.90;1.80;;;;;;;1.50;77.09;99853.09;6210958;23;20009;-73
2022/01/05 02:25:12;;;;;;;9.45;1.45;;;;;;;1.50;77.26;99851.22;6188073;23;20009;-74
2022/01/05 02:27:42;;;;;;;6.53;2.15;;;;;;;1.53;77.18;99858.88;6212185;23;20445;-73
2022/01/05 02:30:13;;;;;;;8.45;1.45;;;;;;;1.43;77.48;99842.38;6216694;23;19985;-74
2022/01/05 02:32:39;;;;;;;10.52;1.65;;;;;;;1.45;77.43;99845.66;6222633;23;20009;-76
2022/01/05 02:35:05;;;;;;;5.13;1.13;;;;;;;1.50;77.51;99851.22;6217672;23;20739;-74
2022/01/05 02:37:30;;;;;;;6.32;1.63;;;;;;;1.45;77.47;99840.28;6212790;22;20016;-75
2022/01/05 02:39:57;;;;;;;18.13;2.72;;;;;;;1.53;77.03;99845.41;6186209;23;20016;-75
2022/01/05 02:42:29;;;;;;;12.32;1.80;;;;;;;1.57;77.39;99854.69;6213211;23;20004;-76
2022/01/05 02:44:56;;;;;;;14.27;2.00;;;;;;;1.57;77.12;99849.28;6213087;23;20011;-75
2022/01/05 02:47:24;;;;;;;12.57;1.40;;;;;;;1.60;77.28;99858.00;6210091;23;20084;-75
2022/01/05 02:49:50;;;;;;;9.77;1.00;;;;;;;1.64;77.11;99843.03;6208835;23;20048;-75
2022/01/05 02:52:15;;;;;;;17.65;1.65;;;;;;;1.66;77.15;99854.41;6212191;23;20008;-76
2022/01/05 02:54:42;;;;;;;9.00;2.10;;;;;;;1.67;77.00;99842.59;6205770;23;20036;-76
2022/01/05 02:57:08;;;;;;;9.93;1.73;;;;;;;1.76;76.15;99856.59;6210637;23;20028;-75
2022/01/05 02:59:34;;;;;;;23.42;2.22;;;;;;;1.76;76.63;99833.16;6213985;23;20055;-75
2022/01/05 03:01:59;;;;;;;16.60;1.70;;;;;;;1.86;76.16;99838.88;6212336;23;20017;-75
2022/01/05 03:04:28;;;;;;;5.82;1.45;;;;;;;1.91;76.07;99852.50;6188429;23;20316;-75
2022/01/05 03:06:53;;;;;;;6.88;1.85;;;;;;;1.81;76.21;99833.34;6213754;23;20035;-75
2022/01/05 03:09:19;;;;;;;7.53;1.77;;;;;;;1.90;76.55;99853.56;6164634;23;20708;-75
2022/01/05 03:11:45;;;;;;;11.38;2.75;;;;;;;1.91;75.91;99855.22;6211924;23;20009;-74
2022/01/05 03:14:10;;;;;;;4.93;1.67;;;;;;;1.80;75.80;99847.84;6215083;23;20008;-74
2022/01/05 03:16:36;;;;;;;5.82;1.58;;;;;;;1.91;76.10;99870.53;6213261;23;20422;-73
2022/01/05 03:19:05;;;;;;;8.85;1.70;;;;;;;1.90;75.72;99867.03;6208455;23;20004;-73
2022/01/05 03:21:30;;;;;;;4.80;1.55;;;;;;;1.96;75.40;99856.38;6213391;23;20385;-74
2022/01/05 03:23:56;;;;;;;6.38;1.42;;;;;;;2.01;75.46;99870.03;6211964;23;20441;-73
2022/01/05 03:26:21;;;;;;;11.60;1.58;;;;;;;2.01;75.28;99875.44;6209020;23;20371;-74
2022/01/05 03:28:47;;;;;;;8.13;1.58;;;;;;;1.96;75.43;99868.03;6188334;23;20008;-73
2022/01/05 03:31:12;;;;;;;5.47;2.13;;;;;;;2.02;75.38;99869.00;6214307;23;20004;-74
2022/01/05 03:33:38;;;;;;;14.48;1.95;;;;;;;1.97;75.27;99874.22;6213148;23;20449;-74
2022/01/05 03:36:04;;;;;;;3.35;0.85;;;;;;;2.01;75.22;99876.25;6209790;23;20074;-75
2022/01/05 03:38:30;;;;;;;5.32;1.10;;;;;;;2.06;75.01;99887.22;6212062;23;20013;-73
2022/01/05 03:40:56;;;;;;;2.60;1.50;;;;;;;2.04;75.29;99880.38;6212707;23;20013;-75
2022/01/05 03:43:23;;;;;;;8.23;1.20;;;;;;;2.01;75.33;99891.63;6214716;23;20312;-75
2022/01/05 03:45:52;;;;;;;17.90;2.38;;;;;;;2.00;75.45;99893.50;6213445;23;20012;-76
2022/01/05 03:48:22;;;;;;;8.63;1.15;;;;;;;1.89;75.19;99873.47;6186730;23;20009;-76
2022/01/05 03:50:48;;;;;;;6.75;1.25;;;;;;;1.97;74.69;99890.41;6215347;23;19996;-76
2022/01/05 03:53:19;;;;;;;7.90;1.05;;;;;;;1.88;75.13;99877.22;6188481;23;20042;-74
2022/01/05 03:55:49;;;;;;;4.60;1.50;;;;;;;1.88;75.15;99897.97;6213238;23;20020;-74
2022/01/05 03:58:15;;;;;;;5.40;0.98;;;;;;;1.97;75.26;99911.97;6212639;23;20007;-75
2022/01/05 04:00:47;;;;;;;2.50;1.05;;;;;;;1.92;75.57;99891.91;6208771;23;20000;-75
2022/01/05 04:03:18;;;;;;;11.68;1.02;;;;;;;1.83;75.54;99878.94;6211632;23;20004;-74
2022/01/05 04:05:53;;;;;;;14.73;1.75;;;;;;;1.94;75.84;99896.25;6188606;23;20009;-76
2022/01/05 04:08:19;;;;;;;7.00;1.50;;;;;;;1.97;75.66;99890.41;6211613;23;20075;-74
2022/01/05 04:10:44;;;;;;;24.27;1.63;;;;;;;1.81;75.76;99871.06;6212893;23;20002;-76
2022/01/05 04:13:13;;;;;;;9.10;1.10;;;;;;;1.98;75.78;99897.47;6212720;23;20699;-75
2022/01/05 04:15:39;;;;;;;6.30;1.27;;;;;;;1.81;75.89;99881.84;6209006;23;20012;-74
2022/01/05 04:18:07;;;;;;;10.90;1.30;;;;;;;1.96;75.89;99904.94;6163019;23;20331;-74
2022/01/05 04:20:33;;;;;;;10.85;1.30;;;;;;;1.88;75.92;99898.81;6209425;23;20006;-74
2022/01/05 04:22:58;;;;;;;4.18;1.15;;;;;;;1.94;76.20;99907.03;6212837;23;20083;-74
2022/01/05 04:25:24;;;;;;;6.65;1.30;;;;;;;1.88;75.73;99904.19;6214712;23;20054;-74
2022/01/05 04:27:52;;;;;;;11.27;1.67;;;;;;;1.88;75.62;99904.19;6214015;23;20000;-74
2022/01/05 04:30:18;;;;;;;12.50;1.90;;;;;;;1.75;75.65;99896.19;6162779;23;20020;-74
2022/01/05 04:32:44;;;;;;;7.22;1.17;;;;;;;1.78;76.31;99903.84;6211363;23;20005;-73
2022/01/05 04:35:13;;;;;;;6.95;1.70;;;;;;;1.75;76.45;99909.69;6212464;23;20012;-74
2022/01/05 04:37:39;;;;;;;3.60;1.08;;;;;;;1.72;76.30;99904.72;6211533;22;20048;-74
2022/01/05 04:40:05;;;;;;;3.58;1.05;;;;;;;1.78;76.34;99908.41;6212301;23;20019;-74
2022/01/05 04:42:31;;;;;;;7.22;1.25;;;;;;;1.87;76.14;99918.72;6210651;23;20008;-75
2022/01/05 04:45:06;;;;;;;17.35;1.60;;;;;;;1.87;75.89;99907.94;6207727;23;20331;-77
2022/01/05 04:47:35;;;;;;;14.30;1.10;;;;;;;1.85;75.88;99904.59;6213284;23;20067;-75
2022/01/05 04:50:00;;;;;;;7.40;1.45;;;;;;;1.89;75.60;99913.09;6212413;23;20019;-75
2022/01/05 04:52:26;;;;;;;17.90;1.83;;;;;;;1.82;76.10;99910.44;6212094;23;20001;-74
2022/01/05 04:54:51;;;;;;;15.70;1.48;;;;;;;1.89;75.85;99922.00;6187128;23;20063;-75
2022/01/05 04:57:17;;;;;;;9.80;1.92;;;;;;;1.94;75.75;99931.31;6186712;23;20435;-76
2022/01/05 04:59:43;;;;;;;11.13;1.38;;;;;;;1.96;75.46;99921.09;6183774;23;20032;-74
2022/01/05 05:02:12;;;;;;;12.15;1.13;;;;;;;1.96;75.69;99937.28;6187113;23;20074;-75
2022/01/05 05:04:38;;;;;;;6.53;0.98;;;;;;;2.05;75.05;99934.09;6209787;23;20009;-76
2022/01/05 05:07:04;;;;;;;12.70;1.20;;;;;;;2.03;74.49;99930.81;6212298;23;20501;-74
2022/01/05 05:09:29;;;;;;;3.38;0.93;;;;;;;2.08;74.57;99946.31;6211148;23;20005;-75
2022/01/05 05:11:55;;;;;;;5.30;1.08;;;;;;;2.07;74.80;99941.97;6161273;23;20327;-74
2022/01/05 05:14:20;;;;;;;4.82;0.85;;;;;;;2.10;74.53;99949.63;6211221;23;20487;-73
2022/01/05 05:16:48;;;;;;;5.32;1.00;;;;;;;2.06;74.31;99943.84;6183078;23;20012;-74
2022/01/05 05:19:13;;;;;;;7.57;0.90;;;;;;;2.06;74.17;99943.84;6211562;23;20400;-75
2022/01/05 05:21:39;;;;;;;9.82;1.55;;;;;;;2.04;74.17;99950.50;6156677;23;20391;-73
2022/01/05 05:24:05;;;;;;;6.60;1.40;;;;;;;1.99;74.05;99936.88;6210201;23;20008;-74
2022/01/05 05:26:31;;;;;;;8.35;1.63;;;;;;;2.03;74.43;99954.25;6208711;23;20332;-74
2022/01/05 05:28:56;;;;;;;8.15;1.23;;;;;;;2.04;74.13;99954.03;6212122;23;20004;-74
2022/01/05 05:31:22;;;;;;;6.28;0.95;;;;;;;2.05;74.17;99960.25;6161564;23;20502;-74
2022/01/05 05:33:47;;;;;;;5.60;0.95;;;;;;;2.03;74.35;99954.25;6182067;23;20016;-74
2022/01/05 05:36:12;;;;;;;12.57;1.08;;;;;;;2.01;74.33;99950.94;6162662;23;20100;-74
2022/01/05 05:38:38;;;;;;;10.63;2.03;;;;;;;1.96;74.47;99953.47;6204990;23;20004;-75
2022/01/05 05:41:04;;;;;;;6.22;1.20;;;;;;;1.97;74.29;99964.06;6186340;23;20427;-76
2022/01/05 05:43:29;;;;;;;7.85;1.15;;;;;;;1.94;74.16;99951.00;6180434;23;20488;-76
2022/01/05 05:45:54;;;;;;;7.75;0.88;;;;;;;1.98;74.44;99962.19;6211235;23;20103;-75
2022/01/05 05:48:20;;;;;;;2.20;1.25;;;;;;;1.98;74.31;99962.19;6207065;23;20099;-76
2022/01/05 05:50:46;;;;;;;13.73;1.15;;;;;;;1.92;74.14;99970.09;6161139;23;20106;-75
2022/01/05 05:53:11;;;;;;;8.48;1.13;;;;;;;1.99;74.52;99958.44;6157467;23;20012;-75
2022/01/05 05:55:37;;;;;;;14.30;1.75;;;;;;;1.96;74.02;99970.50;6186016;23;20312;-75
2022/01/05 05:58:03;;;;;;;12.98;1.85;;;;;;;1.95;74.23;99968.03;6208523;23;20028;-74
2022/01/05 06:00:29;;;;;;;8.02;1.80;;;;;;;2.01;74.17;99972.53;6210179;23;20346;-76
2022/01/05 06:02:59;;;;;;;14.90;1.35;;;;;;;1.85;73.98;99955.84;6207807;23;20057;-74
2022/01/05 06:05:25;;;;;;;5.53;1.90;;;;;;;2.01;73.93;99975.22;6211802;23;20007;-75
2022/01/05 06:07:53;;;;;;;6.05;1.30;;;;;;;1.98;73.71;99979.19;6209198;23;20013;-75
2022/01/05 06:10:18;;;;;;;6.50;1.15;;;;;;;1.96;74.34;99986.69;6210475;23;20004;-76
2022/01/05 06:12:44;;;;;;;12.50;1.75;;;;;;;2.02;73.95;99990.38;6210423;23;20008;-75
2022/01/05 06:15:10;;;;;;;8.88;0.77;;;;;;;1.98;73.60;99989.97;6182822;23;20012;-75
2022/01/05 06:17:36;;;;;;;14.07;1.58;;;;;;;2.02;73.63;100001.97;6161281;23;20009;-74
2022/01/05 06:20:04;;;;;;;6.82;1.02;;;;;;;1.98;73.69;99999.94;6181987;23;20036;-75
2022/01/05 06:22:30;;;;;;;11.25;1.05;;;;;;;1.96;73.73;100002.00;6211660;23;20092;-76
2022/01/05 06:24:56;;;;;;;8.77;1.48;;;;;;;1.97;74.14;100011.75;6159125;23;20389;-75
2022/01/05 06:27:21;;;;;;;15.25;1.45;;;;;;;1.83;74.57;99998.38;6186258;23;20327;-76
2022/01/05 06:29:47;;;;;;;5.30;2.17;;;;;;;1.97;73.83;100014.47;6213204;23;20075;-75
2022/01/05 06:32:12;;;;;;;9.80;1.25;;;;;;;1.92;74.17;100013.25;6210212;23;20005;-76
2022/01/05 06:34:38;;;;;;;6.30;1.10;;;;;;;1.89;74.08;100012.88;6211005;23;20004;-76
2022/01/05 06:37:03;;;;;;;9.02;1.33;;;;;;;1.90;73.83;100014.53;6181440;23;20809;-76
2022/01/05 06:39:29;;;;;;;9.15;1.73;;;;;;;1.94;73.75;100031.09;6211464;23;20008;-76
2022/01/05 06:41:55;;;;;;;8.60;1.38;;;;;;;1.96;74.04;100024.44;6211503;23;20428;-75
2022/01/05 06:44:20;;;;;;;12.07;1.55;;;;;;;1.97;73.96;100028.78;6212557;23;20015;-76
2022/01/05 06:46:46;;;;;;;9.52;1.02;;;;;;;2.00;73.30;100033.75;6162182;23;20008;-76
2022/01/05 06:49:12;;;;;;;11.82;1.25;;;;;;;2.00;74.07;100041.84;6207163;23;20001;-76
2022/01/05 06:51:37;;;;;;;6.55;1.17;;;;;;;1.98;74.17;100032.31;6212423;23;20052;-76
2022/01/05 06:54:05;;;;;;;8.13;0.90;;;;;;;1.95;74.03;100032.75;6212088;23;20095;-76
2022/01/05 06:56:30;;;;;;;9.45;1.33;;;;;;;1.89;73.97;100029.06;6211111;23;20013;-76
2022/01/05 06:58:56;;;;;;;7.72;1.70;;;;;;;1.86;74.37;100033.00;6161281;23;20035;-75
2022/01/05 07:01:21;;;;;;;6.63;1.25;;;;;;;1.87;74.22;100047.31;6189403;23;20009;-76
2022/01/05 07:03:47;;;;;;;11.88;2.65;;;;;;;1.78;74.21;100033.25;6210752;23;20008;-75
2022/01/05 07:06:12;;;;;;;9.70;0.90;;;;;;;1.87;74.39;100050.84;6210390;23;20321;-75
2022/01/05 07:08:38;;;;;;;16.55;1.23;;;;;;;1.82;74.80;100039.06;6183306;23;20084;-75
2022/01/05 07:11:03;;;;;;;10.27;0.85;;;;;;;1.81;74.52;100040.94;6187293;23;20004;-76
2022/01/05 07:13:29;;;;;;;2.05;0.88;;;;;;;1.83;74.55;100041.53;6212703;23;20063;-75
2022/01/05 07:15:54;;;;;;;5.40;0.90;;;;;;;1.92;74.00;100077.97;6214982;23;20016;-77
2022/01/05 07:18:20;;;;;;;4.55;1.00;;;;;;;1.91;74.41;100076.34;6221354;23;20009;-74
2022/01/05 07:20:45;;;;;;;3.08;0.60;;;;;;;1.92;74.06;100087.94;6187368;23;20016;-72
2022/01/05 07:23:11;;;;;;;2.97;0.57;;;;;;;1.81;73.84;100062.50;6209408;23;20008;-75
2022/01/05 07:25:36;;;;;;;5.20;1.55;;;;;;;1.73;73.36;100076.22;6214862;23;20007;-73
2022/01/05 07:28:02;;;;;;;7.00;0.88;;;;;;;1.64;73.64;100074.84;6218701;23;20055;-74
2022/01/05 07:30:30;;;;;;;3.15;1.23;;;;;;;1.51;74.03;100071.16;6218234;23;20000;-74
2022/01/05 07:32:55;;;;;;;9.93;2.28;;;;;;;1.55;74.24;100093.13;6216417;23;20606;-74
2022/01/05 07:35:21;;;;;;;6.60;2.05;;;;;;;1.46;74.90;100081.78;6190695;23;20012;-75
2022/01/05 07:37:46;;;;;;;11.85;1.35;;;;;;;1.46;75.35;100089.00;6216278;23;20025;-77
2022/01/05 07:40:13;;;;;;;9.90;1.27;;;;;;;1.38;75.46;100063.13;6210654;23;20050;-79
2022/01/05 07:42:38;;;;;;;2.22;0.77;;;;;;;1.47;75.41;100091.47;6187541;23;20020;-78
2022/01/05 07:45:09;;;;;;;6.25;1.08;;;;;;;1.51;75.46;100094.59;6213057;23;20359;-77
2022/01/05 07:47:35;;;;;;;3.88;0.98;;;;;;;1.53;75.42;100114.91;6206630;23;20054;-77
2022/01/05 07:50:03;;;;;;;6.53;1.25;;;;;;;1.65;75.95;100122.28;6209330;23;20001;-77
2022/01/05 07:52:31;;;;;;;12.50;4.95;;;;;;;1.67;75.11;100122.94;6212786;23;20088;-77
2022/01/05 07:55:01;;;;;;;8.40;1.17;;;;;;;1.81;75.20;100139.84;6213339;23;20015;-77
2022/01/05 07:57:32;;;;;;;10.77;1.48;;;;;;;1.84;75.14;100145.66;6210961;23;20008;-76
2022/01/05 08:00:00;;;;;;;5.05;1.30;;;;;;;1.89;74.77;100153.91;6186514;23;20341;-76
2022/01/05 08:02:26;;;;;;;11.48;1.88;;;;;;;1.75;75.00;100136.13;6209988;23;20016;-76
2022/01/05 08:04:51;;;;;;;4.57;1.75;;;;;;;1.81;75.20;100143.41;6209535;23;20067;-74
2022/01/05 08:07:19;;;;;;;10.50;1.35;;;;;;;1.80;74.90;100132.81;6210941;23;20004;-76
2022/01/05 08:09:44;;;;;;;5.15;1.10;;;;;;;1.88;75.03;100156.81;6185231;23;20004;-77
2022/01/05 08:12:10;;;;;;;9.05;1.17;;;;;;;1.85;75.15;100155.38;6212807;23;20011;-78
2022/01/05 08:14:36;;;;;;;11.30;1.65;;;;;;;1.87;75.20;100156.00;6214197;23;20380;-78
2022/01/05 08:17:03;;;;;;;10.00;1.52;;;;;;;1.85;74.88;100149.16;6211520;23;20019;-75
2022/01/05 08:19:29;;;;;;;12.00;1.50;;;;;;;1.85;75.01;100160.78;6208317;23;20012;-77
2022/01/05 08:21:54;;;;;;;10.93;1.95;;;;;;;1.94;74.49;100163.22;6210830;23;20027;-76
2022/01/05 08:24:20;;;;;;;9.50;1.00;;;;;;;1.91;74.61;100159.94;6210788;23;20367;-76
2022/01/05 08:26:55;;;;;;;;;;;;;;;;;;;;;
2022/01/05 08:29:23;;;;;;;7.28;1.00;;;;;;;2.09;74.31;100175.38;6189957;23;20075;-75
2022/01/05 08:31:49;;;;;;;4.78;1.23;;;;;;;1.99;74.28;100169.63;6210030;23;20703;-76
2022/01/05 08:34:14;;;;;;;7.03;0.93;;;;;;;2.04;74.03;100166.28;6207751;23;20008;-76
2022/01/05 08:36:50;;;;;;;6.68;1.17;;;;;;;2.18;73.86;100178.66;6208068;23;20024;-76
2022/01/05 08:39:20;;;;;;;5.55;0.90;;;;;;;2.26;73.98;100186.50;6180311;23;20403;-77
2022/01/05 08:41:47;;;;;;;6.45;1.65;;;;;;;2.26;73.13;100185.66;6212249;23;20009;-76
2022/01/05 08:44:20;;;;;;;14.82;1.67;;;;;;;2.16;73.84;100166.41;6207728;23;20000;-76
2022/01/05 08:46:48;;;;;;;10.82;1.17;;;;;;;2.27;72.98;100182.75;6159464;23;20095;-76
2022/01/05 08:49:15;;;;;;;15.90;1.70;;;;;;;2.33;73.30;100181.06;6183687;23;20005;-76
2022/01/05 08:51:41;;;;;;;2.38;0.93;;;;;;;2.35;72.95;100183.53;6211721;23;20001;-77
2022/01/05 08:54:17;;;;;;;8.27;1.60;;;;;;;2.48;72.74;100205.03;6212490;23;20004;-78
2022/01/05 08:56:42;;;;;;;9.98;1.08;;;;;;;2.58;72.33;100210.78;6211203;23;20014;-76
2022/01/05 08:59:08;;;;;;;4.13;1.73;;;;;;;2.58;72.59;100199.97;6211067;23;20028;-77
2022/01/05 09:01:43;;;;;;;;;;;;;;;;;;;;;
2022/01/05 09:04:09;;;;;;;1.88;1.13;;;;;;;2.72;72.06;100202.59;6212678;23;20088;-77
2022/01/05 09:06:37;;;;;;;8.10;1.00;;;;;;;2.80;71.32;100205.00;6214225;23;20028;-76
2022/01/05 09:09:04;;;;;;;2.17;1.02;;;;;;;2.80;71.87;100207.72;6207216;23;20440;-77
2022/01/05 09:11:39;;;;;;;7.50;1.02;;;;;;;2.86;71.27;100216.81;6213145;23;20024;-77
2022/01/05 09:14:09;;;;;;;9.32;0.90;;;;;;;2.88;71.35;100202.03;6214601;23;20039;-77
2022/01/05 09:16:44;;;;;;;6.63;1.95;;;;;;;3.05;70.74;100236.59;6210193;23;20001;-75
2022/01/05 09:19:10;;;;;;;4.68;1.20;;;;;;;2.96;71.37;100223.38;6208168;23;20016;-75
2022/01/05 09:21:38;;;;;;;2.97;1.02;;;;;;;2.96;71.14;100217.97;6211577;23;20004;-75
2022/01/05 09:24:04;;;;;;;8.60;1.38;;;;;;;3.23;70.54;100260.97;6186153;23;20032;-75
2022/01/05 09:26:29;;;;;;;12.18;1.48;;;;;;;3.25;70.69;100260.75;6208454;23;20431;-76
2022/01/05 09:29:02;;;;;;;6.15;1.67;;;;;;;3.36;70.41;100265.44;6210416;23;20031;-75
2022/01/05 09:31:32;;;;;;;5.28;1.35;;;;;;;3.34;71.10;100253.19;6212522;23;20000;-76
2022/01/05 09:34:03;;;;;;;7.45;1.77;;;;;;;3.49;69.71;100273.41;6210651;23;20007;-75
2022/01/05 09:36:37;;;;;;;6.57;1.50;;;;;;;3.57;70.15;100274.19;6210176;23;20020;-74
2022/01/05 09:41:57;;;;;;;4.13;1.33;;;;;;;3.71;69.33;100266.75;6207605;23;20023;-75
2022/01/05 09:44:47;;;;;;;;;;;;;;;;;;;;;
2022/01/05 09:47:35;;;;;;;3.50;0.88;;;;;;;5.49;65.77;100270.91;6207876;23;20075;-75
2022/01/05 09:50:10;;;;;;;5.97;1.92;;;;;;;6.25;62.95;100268.19;6213215;23;19996;-74
2022/01/05 09:52:46;;;;;;;5.97;1.23;;;;;;;6.97;60.93;100275.78;6209825;23;20008;-75
2022/01/05 09:55:25;;;;;;;3.33;1.52;;;;;;;7.62;60.10;100272.72;6210535;23;20012;-75
2022/01/05 09:58:14;;;;;;;5.28;1.58;;;;;;;8.43;58.01;100280.31;6205047;23;19996;-74
2022/01/05 10:00:52;;;;;;;;;;;;;;;;;;;;;
2022/01/05 10:03:18;;;;;;;3.15;0.68;;;;;;;9.22;54.25;100278.91;6208654;23;20119;-74
2022/01/05 10:05:53;;;;;;;4.80;1.17;;;;;;;9.57;52.85;100277.53;6210603;23;20058;-74
2022/01/05 10:08:31;;;;;;;;;;;;;;;;;;;;;
2022/01/05 10:10:57;;;;;;;3.30;0.88;;;;;;;10.25;49.70;100303.28;6212931;23;20370;-75
2022/01/05 10:13:25;;;;;;;4.90;1.10;;;;;;;10.44;48.83;100298.19;6205931;23;20039;-75
2022/01/05 10:16:03;;;;;;;;;;;;;;;;;;;;;
2022/01/05 10:18:39;;;;;;;4.97;0.93;;;;;;;11.03;48.71;100323.53;6213542;23;20522;-76
2022/01/05 10:21:07;;;;;;;7.72;1.20;;;;;;;11.27;47.96;100324.66;6205666;23;20005;-74
2022/01/05 10:23:44;;;;;;;2.97;0.80;;;;;;;11.90;48.61;100337.19;6211927;23;20008;-77
2022/01/05 10:26:25;;;;;;;2.67;0.80;;;;;;;12.56;45.85;100346.34;6206860;23;20123;-77
2022/01/05 10:28:56;;;;;;;6.30;1.55;;;;;;;12.69;44.71;100331.19;6211690;23;20067;-77
2022/01/05 10:31:52;;;;;;;2.92;0.90;;;;;;;12.86;44.01;100341.78;6212922;23;20001;-75
2022/01/05 10:34:20;;;;;;;2.35;1.05;;;;;;;12.91;42.85;100339.03;6185334;23;20455;-75
2022/01/05 10:36:51;;;;;;;1.75;0.63;;;;;;;13.02;43.26;100350.75;6211634;23;20017;-75
2022/01/05 10:39:39;;;;;;;3.78;1.40;;;;;;;13.16;42.87;100345.44;6212625;23;20005;-77
2022/01/05 10:42:07;;;;;;;2.97;1.05;;;;;;;13.19;42.35;100345.69;6209810;23;20000;-76
2022/01/05 10:44:45;;;;;;;;;;;;;;;;;;;;;
2022/01/05 10:47:40;;;;;;;;;;;;;;;;;;;;;
2022/01/05 10:50:20;;;;;;;6.80;1.38;;;;;;;13.71;42.05;100335.16;6211041;23;20067;-75
2022/01/05 10:52:56;;;;;;;7.13;1.00;;;;;;;14.28;42.20;100348.28;6210527;23;20001;-76
2022/01/05 10:55:39;;;;;;;8.40;1.40;;;;;;;14.71;40.62;100339.28;6209599;23;20007;-75
2022/01/05 10:58:17;;;;;;;2.13;0.88;;;;;;;15.15;40.26;100354.59;6209667;23;20024;-76
2022/01/05 11:00:56;;;;;;;;;;;;;;;;;;;;;
2022/01/05 11:03:32;;;;;;;2.88;0.98;;;;;;;16.07;39.75;100368.81;6211595;23;20088;-76
2022/01/05 11:06:11;;;;;;;1.75;0.60;;;;;;;16.86;40.59;100378.81;6212358;23;20005;-76
2022/01/05 11:09:00;;;;;;;1.25;0.60;;;;;;;17.73;39.32;100380.72;6210511;23;20423;-76
2022/01/05 11:11:43;;;;;;;1.80;1.00;;;;;;;18.44;36.67;100385.47;6210898;23;20008;-77
2022/01/05 11:14:30;;;;;;;1.27;0.90;;;;;;;18.67;34.90;100384.28;6212372;23;20020;-76
2022/01/05 11:16:56;;;;;;;1.35;1.05;;;;;;;18.74;33.94;100377.44;6207970;23;20008;-76
2022/01/05 11:19:29;;;;;;;4.85;1.40;;;;;;;18.65;33.01;100385.72;6212588;23;20017;-77
2022/01/05 11:22:11;;;;;;;2.63;0.93;;;;;;;18.52;33.36;100390.25;6213936;23;20143;-77
2022/01/05 11:24:45;;;;;;;3.28;1.00;;;;;;;18.60;33.81;100383.94;6213815;23;20056;-77
2022/01/05 11:27:39;;;;;;;1.50;0.80;;;;;;;18.99;32.88;100407.16;6211867;23;20004;-76
2022/01/05 11:30:06;;;;;;;0.95;0.55;;;;;;;19.26;33.62;100405.25;6209238;23;20004;-76
2022/01/05 11:32:34;;;;;;;2.05;0.85;;;;;;;19.75;33.29;100409.81;6211799;23;20028;-77
2022/01/05 11:35:08;;;;;;;3.15;0.93;;;;;;;20.30;32.92;100425.69;6213634;23;20074;-76
2022/01/05 11:37:34;;;;;;;4.45;0.60;;;;;;;20.62;31.73;100417.91;6185858;23;20025;-76
2022/01/05 11:40:05;;;;;;;1.25;0.80;;;;;;;20.78;30.89;100420.13;6212534;23;20016;-75
2022/01/05 11:42:39;;;;;;;5.38;0.45;;;;;;;20.78;29.48;100414.56;6211521;23;20087;-76
2022/01/05 11:45:07;;;;;;;4.50;1.20;;;;;;;20.49;29.86;100405.88;6213809;23;20083;-77
2022/01/05 11:47:39;;;;;;;2.55;0.80;;;;;;;20.51;30.28;100403.56;6212041;23;20339;-75
2022/01/05 11:50:26;;;;;;;3.45;1.00;;;;;;;20.78;29.41;100411.78;6214621;23;20000;-77
2022/01/05 11:53:26;;;;;;;3.97;1.50;;;;;;;20.61;28.22;100409.91;6210897;23;20005;-75
2022/01/05 11:55:57;;;;;;;5.03;1.65;;;;;;;20.54;29.47;100408.44;6175703;23;20008;-78